sensor_id;sensor_type;location;lat;lon;timestamp;P1;durP1;ratioP1;P2;durP2;ratioP2
6420;SDS011;3243;50.958;7.012;2022-10-19T00:00:29;30.67;;;15.87;;
6420;SDS011;3243;50.958;7.012;2022-10-19T00:02:56;24.20;;;13.60;;
6420;SDS011;3243;50.958;7.012;2022-10-19T00:05:22;26.80;;;14.97;;
6420;SDS011;3243;50.958;7.012;2022-10-19T00:07:49;21.60;;;13.57;;
6420;SDS011;3243;50.958;7.012;2022-10-19T00:10:16;25.53;;;14.10;;
6420;SDS011;3243;50.958;7.012;2022-10-19T00:12:42;22.50;;;12.80;;
6420;SDS011;3243;50.958;7.012;2022-10-19T00:15:09;25.00;;;14.40;;
6420;SDS011;3243;50.958;7.012;2022-10-19T00:17:36;21.57;;;13.57;;
6420;SDS011;3243;50.958;7.012;2022-10-19T00:20:02;24.43;;;13.30;;
6420;SDS011;3243;50.958;7.012;2022-10-19T00:22:30;20.23;;;11.47;;
6420;SDS011;3243;50.958;7.012;2022-10-19T00:24:57;21.13;;;12.57;;
6420;SDS011;3243;50.958;7.012;2022-10-19T00:27:23;22.33;;;11.53;;
6420;SDS011;3243;50.958;7.012;2022-10-19T00:29:50;16.10;;;11.30;;
6420;SDS011;3243;50.958;7.012;2022-10-19T00:32:17;18.10;;;12.03;;
6420;SDS011;3243;50.958;7.012;2022-10-19T00:34:44;19.80;;;11.73;;
6420;SDS011;3243;50.958;7.012;2022-10-19T00:37:10;23.23;;;12.73;;
6420;SDS011;3243;50.958;7.012;2022-10-19T00:39:37;24.60;;;13.13;;
6420;SDS011;3243;50.958;7.012;2022-10-19T00:42:04;19.60;;;12.33;;
6420;SDS011;3243;50.958;7.012;2022-10-19T00:46:59;22.93;;;12.33;;
6420;SDS011;3243;50.958;7.012;2022-10-19T00:49:34;20.17;;;12.83;;
6420;SDS011;3243;50.958;7.012;2022-10-19T00:52:05;19.90;;;12.60;;
6420;SDS011;3243;50.958;7.012;2022-10-19T00:54:38;18.90;;;11.80;;
6420;SDS011;3243;50.958;7.012;2022-10-19T00:57:07;25.27;;;13.40;;
6420;SDS011;3243;50.958;7.012;2022-10-19T00:59:34;18.43;;;11.57;;
6420;SDS011;3243;50.958;7.012;2022-10-19T01:02:04;19.67;;;11.63;;
6420;SDS011;3243;50.958;7.012;2022-10-19T01:04:31;21.67;;;12.60;;
6420;SDS011;3243;50.958;7.012;2022-10-19T01:07:01;16.80;;;11.40;;
6420;SDS011;3243;50.958;7.012;2022-10-19T01:09:30;18.30;;;11.03;;
6420;SDS011;3243;50.958;7.012;2022-10-19T01:14:54;22.93;;;13.17;;
6420;SDS011;3243;50.958;7.012;2022-10-19T01:28:30;23.93;;;12.80;;
6420;SDS011;3243;50.958;7.012;2022-10-19T01:34:01;21.73;;;13.40;;
6420;SDS011;3243;50.958;7.012;2022-10-19T01:39:42;23.10;;;12.67;;
6420;SDS011;3243;50.958;7.012;2022-10-19T01:42:30;20.43;;;12.43;;
6420;SDS011;3243;50.958;7.012;2022-10-19T01:45:14;23.60;;;12.50;;
6420;SDS011;3243;50.958;7.012;2022-10-19T01:50:46;20.17;;;12.80;;
6420;SDS011;3243;50.958;7.012;2022-10-19T01:53:14;26.70;;;12.90;;
6420;SDS011;3243;50.958;7.012;2022-10-19T01:55:44;19.37;;;12.20;;
6420;SDS011;3243;50.958;7.012;2022-10-19T01:58:16;21.33;;;11.03;;
6420;SDS011;3243;50.958;7.012;2022-10-19T02:00:46;15.70;;;10.90;;
6420;SDS011;3243;50.958;7.012;2022-10-19T02:03:15;17.80;;;11.73;;
6420;SDS011;3243;50.958;7.012;2022-10-19T02:05:43;16.67;;;10.77;;
6420;SDS011;3243;50.958;7.012;2022-10-19T02:08:13;23.70;;;10.97;;
6420;SDS011;3243;50.958;7.012;2022-10-19T02:10:43;16.80;;;10.50;;
6420;SDS011;3243;50.958;7.012;2022-10-19T02:13:12;17.40;;;10.17;;
6420;SDS011;3243;50.958;7.012;2022-10-19T02:15:41;17.43;;;11.13;;
6420;SDS011;3243;50.958;7.012;2022-10-19T02:18:12;16.63;;;9.50;;
6420;SDS011;3243;50.958;7.012;2022-10-19T02:20:43;17.23;;;10.20;;
6420;SDS011;3243;50.958;7.012;2022-10-19T02:23:10;15.50;;;11.17;;
6420;SDS011;3243;50.958;7.012;2022-10-19T02:25:39;17.93;;;11.47;;
6420;SDS011;3243;50.958;7.012;2022-10-19T02:28:05;18.43;;;10.40;;
6420;SDS011;3243;50.958;7.012;2022-10-19T02:30:32;20.83;;;11.53;;
6420;SDS011;3243;50.958;7.012;2022-10-19T02:32:59;16.53;;;10.30;;
6420;SDS011;3243;50.958;7.012;2022-10-19T02:35:26;23.27;;;11.23;;
6420;SDS011;3243;50.958;7.012;2022-10-19T02:37:53;15.73;;;10.13;;
6420;SDS011;3243;50.958;7.012;2022-10-19T02:40:23;15.90;;;11.10;;
6420;SDS011;3243;50.958;7.012;2022-10-19T02:42:51;24.47;;;11.30;;
6420;SDS011;3243;50.958;7.012;2022-10-19T02:45:24;18.57;;;11.73;;
6420;SDS011;3243;50.958;7.012;2022-10-19T02:47:56;23.60;;;10.53;;
6420;SDS011;3243;50.958;7.012;2022-10-19T02:50:27;18.47;;;10.90;;
6420;SDS011;3243;50.958;7.012;2022-10-19T02:52:54;15.43;;;10.37;;
6420;SDS011;3243;50.958;7.012;2022-10-19T02:55:23;20.07;;;11.93;;
6420;SDS011;3243;50.958;7.012;2022-10-19T02:57:49;19.07;;;11.27;;
6420;SDS011;3243;50.958;7.012;2022-10-19T03:00:16;14.83;;;10.20;;
6420;SDS011;3243;50.958;7.012;2022-10-19T03:02:43;17.33;;;10.67;;
6420;SDS011;3243;50.958;7.012;2022-10-19T03:05:09;16.30;;;11.00;;
6420;SDS011;3243;50.958;7.012;2022-10-19T03:07:36;16.40;;;9.30;;
6420;SDS011;3243;50.958;7.012;2022-10-19T03:10:03;18.27;;;9.57;;
6420;SDS011;3243;50.958;7.012;2022-10-19T03:12:30;13.83;;;8.47;;
6420;SDS011;3243;50.958;7.012;2022-10-19T03:14:56;12.73;;;9.07;;
6420;SDS011;3243;50.958;7.012;2022-10-19T03:17:23;15.00;;;9.50;;
6420;SDS011;3243;50.958;7.012;2022-10-19T03:19:50;19.57;;;9.53;;
6420;SDS011;3243;50.958;7.012;2022-10-19T03:22:16;19.30;;;9.37;;
6420;SDS011;3243;50.958;7.012;2022-10-19T03:24:43;15.20;;;9.90;;
6420;SDS011;3243;50.958;7.012;2022-10-19T03:27:10;16.70;;;9.57;;
6420;SDS011;3243;50.958;7.012;2022-10-19T03:29:36;19.73;;;10.23;;
6420;SDS011;3243;50.958;7.012;2022-10-19T03:32:03;15.90;;;10.27;;
6420;SDS011;3243;50.958;7.012;2022-10-19T03:34:30;22.17;;;11.17;;
6420;SDS011;3243;50.958;7.012;2022-10-19T03:36:57;23.57;;;11.47;;
6420;SDS011;3243;50.958;7.012;2022-10-19T03:39:24;17.20;;;10.93;;
6420;SDS011;3243;50.958;7.012;2022-10-19T03:41:51;23.83;;;11.37;;
6420;SDS011;3243;50.958;7.012;2022-10-19T03:44:18;23.23;;;12.00;;
6420;SDS011;3243;50.958;7.012;2022-10-19T03:46:44;20.23;;;11.53;;
6420;SDS011;3243;50.958;7.012;2022-10-19T03:49:11;17.53;;;10.37;;
6420;SDS011;3243;50.958;7.012;2022-10-19T03:51:38;16.47;;;10.63;;
6420;SDS011;3243;50.958;7.012;2022-10-19T03:54:06;24.13;;;12.13;;
6420;SDS011;3243;50.958;7.012;2022-10-19T03:56:34;20.73;;;11.10;;
6420;SDS011;3243;50.958;7.012;2022-10-19T03:59:02;15.47;;;9.83;;
6420;SDS011;3243;50.958;7.012;2022-10-19T04:01:34;16.40;;;10.00;;
6420;SDS011;3243;50.958;7.012;2022-10-19T04:04:05;16.60;;;9.90;;
6420;SDS011;3243;50.958;7.012;2022-10-19T04:06:36;15.07;;;10.10;;
6420;SDS011;3243;50.958;7.012;2022-10-19T04:09:04;18.60;;;9.97;;
6420;SDS011;3243;50.958;7.012;2022-10-19T04:11:33;18.37;;;9.67;;
6420;SDS011;3243;50.958;7.012;2022-10-19T04:14:00;16.70;;;9.90;;
6420;SDS011;3243;50.958;7.012;2022-10-19T04:16:28;15.10;;;9.63;;
6420;SDS011;3243;50.958;7.012;2022-10-19T04:18:55;15.10;;;9.20;;
6420;SDS011;3243;50.958;7.012;2022-10-19T04:24:16;25.40;;;10.13;;
6420;SDS011;3243;50.958;7.012;2022-10-19T04:26:51;15.33;;;9.53;;
6420;SDS011;3243;50.958;7.012;2022-10-19T04:29:20;13.73;;;9.70;;
6420;SDS011;3243;50.958;7.012;2022-10-19T04:31:53;13.50;;;9.13;;
6420;SDS011;3243;50.958;7.012;2022-10-19T04:34:19;19.23;;;9.10;;
6420;SDS011;3243;50.958;7.012;2022-10-19T04:36:46;17.03;;;9.87;;
6420;SDS011;3243;50.958;7.012;2022-10-19T04:39:13;18.80;;;9.30;;
6420;SDS011;3243;50.958;7.012;2022-10-19T04:41:40;19.53;;;10.40;;
6420;SDS011;3243;50.958;7.012;2022-10-19T04:44:06;16.07;;;9.57;;
6420;SDS011;3243;50.958;7.012;2022-10-19T04:46:34;17.37;;;10.40;;
6420;SDS011;3243;50.958;7.012;2022-10-19T04:49:02;17.73;;;9.40;;
6420;SDS011;3243;50.958;7.012;2022-10-19T04:51:31;14.27;;;9.07;;
6420;SDS011;3243;50.958;7.012;2022-10-19T04:53:58;17.43;;;9.37;;
6420;SDS011;3243;50.958;7.012;2022-10-19T04:56:25;14.87;;;8.90;;
6420;SDS011;3243;50.958;7.012;2022-10-19T04:58:53;14.97;;;9.67;;
6420;SDS011;3243;50.958;7.012;2022-10-19T05:01:22;17.70;;;9.67;;
6420;SDS011;3243;50.958;7.012;2022-10-19T05:03:53;16.50;;;10.70;;
6420;SDS011;3243;50.958;7.012;2022-10-19T05:06:25;16.37;;;10.50;;
6420;SDS011;3243;50.958;7.012;2022-10-19T05:08:53;22.07;;;10.07;;
6420;SDS011;3243;50.958;7.012;2022-10-19T05:11:20;14.67;;;9.60;;
6420;SDS011;3243;50.958;7.012;2022-10-19T05:13:47;17.37;;;10.37;;
6420;SDS011;3243;50.958;7.012;2022-10-19T05:16:15;22.17;;;10.40;;
6420;SDS011;3243;50.958;7.012;2022-10-19T05:18:50;24.10;;;11.63;;
6420;SDS011;3243;50.958;7.012;2022-10-19T05:21:21;22.97;;;11.70;;
6420;SDS011;3243;50.958;7.012;2022-10-19T05:23:50;18.77;;;10.00;;
6420;SDS011;3243;50.958;7.012;2022-10-19T05:26:18;16.27;;;9.63;;
6420;SDS011;3243;50.958;7.012;2022-10-19T05:28:49;16.33;;;9.17;;
6420;SDS011;3243;50.958;7.012;2022-10-19T05:31:22;22.93;;;10.73;;
6420;SDS011;3243;50.958;7.012;2022-10-19T05:33:53;23.30;;;10.17;;
6420;SDS011;3243;50.958;7.012;2022-10-19T05:36:22;20.50;;;10.57;;
6420;SDS011;3243;50.958;7.012;2022-10-19T05:38:53;13.60;;;9.20;;
6420;SDS011;3243;50.958;7.012;2022-10-19T05:41:22;19.20;;;10.90;;
6420;SDS011;3243;50.958;7.012;2022-10-19T05:43:53;21.53;;;10.50;;
6420;SDS011;3243;50.958;7.012;2022-10-19T05:46:21;26.63;;;10.87;;
6420;SDS011;3243;50.958;7.012;2022-10-19T05:48:49;17.30;;;10.00;;
6420;SDS011;3243;50.958;7.012;2022-10-19T05:51:17;19.37;;;11.30;;
6420;SDS011;3243;50.958;7.012;2022-10-19T05:53:45;18.80;;;10.70;;
6420;SDS011;3243;50.958;7.012;2022-10-19T05:56:14;17.33;;;10.80;;
6420;SDS011;3243;50.958;7.012;2022-10-19T05:58:46;20.83;;;12.20;;
6420;SDS011;3243;50.958;7.012;2022-10-19T06:01:13;26.77;;;12.67;;
6420;SDS011;3243;50.958;7.012;2022-10-19T06:03:41;21.53;;;11.50;;
6420;SDS011;3243;50.958;7.012;2022-10-19T06:06:08;20.20;;;10.90;;
6420;SDS011;3243;50.958;7.012;2022-10-19T06:08:35;19.87;;;11.10;;
6420;SDS011;3243;50.958;7.012;2022-10-19T06:14:00;14.50;;;9.07;;
6420;SDS011;3243;50.958;7.012;2022-10-19T06:16:29;17.57;;;10.33;;
6420;SDS011;3243;50.958;7.012;2022-10-19T06:18:57;13.67;;;9.93;;
6420;SDS011;3243;50.958;7.012;2022-10-19T06:21:25;18.10;;;9.83;;
6420;SDS011;3243;50.958;7.012;2022-10-19T06:23:55;14.33;;;10.07;;
6420;SDS011;3243;50.958;7.012;2022-10-19T06:26:27;16.13;;;9.67;;
6420;SDS011;3243;50.958;7.012;2022-10-19T06:28:56;16.57;;;10.27;;
6420;SDS011;3243;50.958;7.012;2022-10-19T06:31:26;21.10;;;10.73;;
6420;SDS011;3243;50.958;7.012;2022-10-19T06:33:56;21.23;;;11.17;;
6420;SDS011;3243;50.958;7.012;2022-10-19T06:36:24;14.77;;;10.00;;
6420;SDS011;3243;50.958;7.012;2022-10-19T06:38:52;23.13;;;11.73;;
6420;SDS011;3243;50.958;7.012;2022-10-19T06:41:20;17.13;;;11.00;;
6420;SDS011;3243;50.958;7.012;2022-10-19T06:43:50;21.43;;;11.00;;
6420;SDS011;3243;50.958;7.012;2022-10-19T06:46:19;20.13;;;11.47;;
6420;SDS011;3243;50.958;7.012;2022-10-19T06:48:49;19.37;;;11.70;;
6420;SDS011;3243;50.958;7.012;2022-10-19T06:51:19;18.23;;;10.73;;
6420;SDS011;3243;50.958;7.012;2022-10-19T06:53:46;21.27;;;12.07;;
6420;SDS011;3243;50.958;7.012;2022-10-19T06:56:19;18.97;;;11.23;;
6420;SDS011;3243;50.958;7.012;2022-10-19T06:58:46;28.30;;;12.70;;
6420;SDS011;3243;50.958;7.012;2022-10-19T07:01:15;27.43;;;12.63;;
6420;SDS011;3243;50.958;7.012;2022-10-19T07:03:41;31.80;;;13.90;;
6420;SDS011;3243;50.958;7.012;2022-10-19T07:06:09;28.40;;;13.83;;
6420;SDS011;3243;50.958;7.012;2022-10-19T07:08:38;23.40;;;12.43;;
6420;SDS011;3243;50.958;7.012;2022-10-19T07:11:07;20.60;;;11.60;;
6420;SDS011;3243;50.958;7.012;2022-10-19T07:13:36;22.67;;;12.10;;
6420;SDS011;3243;50.958;7.012;2022-10-19T07:16:04;19.23;;;11.67;;
6420;SDS011;3243;50.958;7.012;2022-10-19T07:18:33;19.60;;;10.93;;
6420;SDS011;3243;50.958;7.012;2022-10-19T07:21:02;21.47;;;11.13;;
6420;SDS011;3243;50.958;7.012;2022-10-19T07:23:31;16.70;;;10.97;;
6420;SDS011;3243;50.958;7.012;2022-10-19T07:26:06;15.27;;;9.67;;
6420;SDS011;3243;50.958;7.012;2022-10-19T07:28:37;16.07;;;10.73;;
6420;SDS011;3243;50.958;7.012;2022-10-19T07:31:09;15.37;;;9.77;;
6420;SDS011;3243;50.958;7.012;2022-10-19T07:33:38;18.80;;;9.67;;
6420;SDS011;3243;50.958;7.012;2022-10-19T07:36:06;13.00;;;8.07;;
6420;SDS011;3243;50.958;7.012;2022-10-19T07:38:34;13.43;;;8.53;;
6420;SDS011;3243;50.958;7.012;2022-10-19T07:43:29;11.50;;;8.40;;
6420;SDS011;3243;50.958;7.012;2022-10-19T07:45:56;16.27;;;9.07;;
6420;SDS011;3243;50.958;7.012;2022-10-19T07:48:24;17.97;;;8.47;;
6420;SDS011;3243;50.958;7.012;2022-10-19T07:50:51;16.63;;;9.03;;
6420;SDS011;3243;50.958;7.012;2022-10-19T07:53:18;15.33;;;7.97;;
6420;SDS011;3243;50.958;7.012;2022-10-19T07:55:45;15.27;;;8.00;;
6420;SDS011;3243;50.958;7.012;2022-10-19T07:58:12;14.50;;;8.70;;
6420;SDS011;3243;50.958;7.012;2022-10-19T08:00:39;12.70;;;7.83;;
6420;SDS011;3243;50.958;7.012;2022-10-19T08:03:10;14.47;;;7.80;;
6420;SDS011;3243;50.958;7.012;2022-10-19T08:06:05;11.93;;;7.23;;
6420;SDS011;3243;50.958;7.012;2022-10-19T08:08:34;13.33;;;7.63;;
6420;SDS011;3243;50.958;7.012;2022-10-19T08:13:35;13.80;;;7.93;;
6420;SDS011;3243;50.958;7.012;2022-10-19T08:16:02;19.03;;;9.20;;
6420;SDS011;3243;50.958;7.012;2022-10-19T08:18:30;13.00;;;8.30;;
6420;SDS011;3243;50.958;7.012;2022-10-19T08:21:02;18.67;;;7.67;;
6420;SDS011;3243;50.958;7.012;2022-10-19T08:23:28;10.23;;;6.90;;
6420;SDS011;3243;50.958;7.012;2022-10-19T08:25:56;14.40;;;7.47;;
6420;SDS011;3243;50.958;7.012;2022-10-19T08:28:24;15.23;;;7.67;;
6420;SDS011;3243;50.958;7.012;2022-10-19T08:30:51;11.73;;;7.77;;
6420;SDS011;3243;50.958;7.012;2022-10-19T08:33:23;15.90;;;7.73;;
6420;SDS011;3243;50.958;7.012;2022-10-19T08:35:51;12.30;;;6.97;;
6420;SDS011;3243;50.958;7.012;2022-10-19T08:38:19;13.70;;;7.17;;
6420;SDS011;3243;50.958;7.012;2022-10-19T08:40:46;12.17;;;6.67;;
6420;SDS011;3243;50.958;7.012;2022-10-19T08:43:21;15.20;;;7.33;;
6420;SDS011;3243;50.958;7.012;2022-10-19T08:46:00;10.37;;;6.97;;
6420;SDS011;3243;50.958;7.012;2022-10-19T08:48:45;9.17;;;6.17;;
6420;SDS011;3243;50.958;7.012;2022-10-19T08:51:12;12.87;;;6.30;;
6420;SDS011;3243;50.958;7.012;2022-10-19T09:02:08;11.17;;;6.53;;
6420;SDS011;3243;50.958;7.012;2022-10-19T09:04:37;15.07;;;6.47;;
6420;SDS011;3243;50.958;7.012;2022-10-19T09:07:21;8.83;;;6.33;;
6420;SDS011;3243;50.958;7.012;2022-10-19T09:09:57;12.03;;;6.20;;
6420;SDS011;3243;50.958;7.012;2022-10-19T09:15:12;8.33;;;6.40;;
6420;SDS011;3243;50.958;7.012;2022-10-19T09:17:42;12.20;;;5.77;;
6420;SDS011;3243;50.958;7.012;2022-10-19T09:20:20;7.23;;;5.60;;
6420;SDS011;3243;50.958;7.012;2022-10-19T09:23:11;12.63;;;6.40;;
6420;SDS011;3243;50.958;7.012;2022-10-19T09:25:47;10.30;;;6.23;;
6420;SDS011;3243;50.958;7.012;2022-10-19T09:31:51;10.67;;;5.60;;
6420;SDS011;3243;50.958;7.012;2022-10-19T09:34:06;8.17;;;4.80;;
6420;SDS011;3243;50.958;7.012;2022-10-19T09:36:51;11.13;;;5.13;;
6420;SDS011;3243;50.958;7.012;2022-10-19T09:39:22;8.77;;;5.50;;
6420;SDS011;3243;50.958;7.012;2022-10-19T09:41:58;11.23;;;5.80;;
6420;SDS011;3243;50.958;7.012;2022-10-19T09:44:30;8.17;;;5.00;;
6420;SDS011;3243;50.958;7.012;2022-10-19T09:49:43;7.57;;;4.43;;
6420;SDS011;3243;50.958;7.012;2022-10-19T09:52:32;8.87;;;4.77;;
6420;SDS011;3243;50.958;7.012;2022-10-19T09:57:48;13.77;;;5.10;;
6420;SDS011;3243;50.958;7.012;2022-10-19T10:00:24;9.37;;;4.60;;
6420;SDS011;3243;50.958;7.012;2022-10-19T10:02:57;9.87;;;4.93;;
6420;SDS011;3243;50.958;7.012;2022-10-19T10:05:37;11.43;;;4.87;;
6420;SDS011;3243;50.958;7.012;2022-10-19T10:08:15;6.97;;;4.53;;
6420;SDS011;3243;50.958;7.012;2022-10-19T10:10:46;7.20;;;4.90;;
6420;SDS011;3243;50.958;7.012;2022-10-19T10:13:19;10.77;;;4.70;;
6420;SDS011;3243;50.958;7.012;2022-10-19T10:15:50;10.30;;;4.60;;
6420;SDS011;3243;50.958;7.012;2022-10-19T10:18:22;11.63;;;5.43;;
6420;SDS011;3243;50.958;7.012;2022-10-19T10:21:03;7.30;;;5.00;;
6420;SDS011;3243;50.958;7.012;2022-10-19T10:23:38;6.33;;;4.40;;
6420;SDS011;3243;50.958;7.012;2022-10-19T10:26:14;8.30;;;4.57;;
6420;SDS011;3243;50.958;7.012;2022-10-19T10:28:47;9.57;;;4.60;;
6420;SDS011;3243;50.958;7.012;2022-10-19T10:31:21;9.80;;;5.03;;
6420;SDS011;3243;50.958;7.012;2022-10-19T10:33:57;8.60;;;4.40;;
6420;SDS011;3243;50.958;7.012;2022-10-19T10:36:49;8.40;;;4.90;;
6420;SDS011;3243;50.958;7.012;2022-10-19T10:39:18;8.60;;;4.27;;
6420;SDS011;3243;50.958;7.012;2022-10-19T10:41:45;11.93;;;5.27;;
6420;SDS011;3243;50.958;7.012;2022-10-19T10:46:50;9.73;;;4.27;;
6420;SDS011;3243;50.958;7.012;2022-10-19T10:49:25;11.50;;;4.20;;
6420;SDS011;3243;50.958;7.012;2022-10-19T10:51:58;5.67;;;3.73;;
6420;SDS011;3243;50.958;7.012;2022-10-19T10:54:30;7.13;;;3.80;;
6420;SDS011;3243;50.958;7.012;2022-10-19T10:59:39;6.70;;;3.70;;
6420;SDS011;3243;50.958;7.012;2022-10-19T11:08:03;8.57;;;3.40;;
6420;SDS011;3243;50.958;7.012;2022-10-19T11:10:59;9.63;;;3.10;;
6420;SDS011;3243;50.958;7.012;2022-10-19T11:13:59;8.37;;;2.80;;
6420;SDS011;3243;50.958;7.012;2022-10-19T11:16:40;8.10;;;2.87;;
6420;SDS011;3243;50.958;7.012;2022-10-19T11:24:49;9.27;;;3.20;;
6420;SDS011;3243;50.958;7.012;2022-10-19T11:27:51;6.60;;;3.07;;
6420;SDS011;3243;50.958;7.012;2022-10-19T11:30:22;8.07;;;2.73;;
6420;SDS011;3243;50.958;7.012;2022-10-19T11:33:06;8.50;;;3.60;;
6420;SDS011;3243;50.958;7.012;2022-10-19T11:35:47;7.07;;;2.90;;
6420;SDS011;3243;50.958;7.012;2022-10-19T11:52:22;6.40;;;3.03;;
6420;SDS011;3243;50.958;7.012;2022-10-19T11:57:59;7.80;;;3.17;;
6420;SDS011;3243;50.958;7.012;2022-10-19T12:00:35;5.80;;;2.70;;
6420;SDS011;3243;50.958;7.012;2022-10-19T12:06:22;8.90;;;2.83;;
6420;SDS011;3243;50.958;7.012;2022-10-19T12:14:15;8.30;;;2.90;;
6420;SDS011;3243;50.958;7.012;2022-10-19T12:16:54;5.47;;;2.70;;
6420;SDS011;3243;50.958;7.012;2022-10-19T12:19:27;6.30;;;2.90;;
6420;SDS011;3243;50.958;7.012;2022-10-19T12:22:02;8.80;;;2.60;;
6420;SDS011;3243;50.958;7.012;2022-10-19T12:24:31;7.57;;;2.60;;
6420;SDS011;3243;50.958;7.012;2022-10-19T12:27:00;6.93;;;2.70;;
6420;SDS011;3243;50.958;7.012;2022-10-19T12:29:31;6.97;;;2.87;;
6420;SDS011;3243;50.958;7.012;2022-10-19T12:32:01;6.97;;;3.00;;
6420;SDS011;3243;50.958;7.012;2022-10-19T12:37:25;10.67;;;4.47;;
6420;SDS011;3243;50.958;7.012;2022-10-19T12:42:52;8.80;;;3.47;;
6420;SDS011;3243;50.958;7.012;2022-10-19T12:45:30;5.67;;;2.87;;
6420;SDS011;3243;50.958;7.012;2022-10-19T12:53:35;7.10;;;3.50;;
6420;SDS011;3243;50.958;7.012;2022-10-19T12:58:36;6.17;;;3.30;;
6420;SDS011;3243;50.958;7.012;2022-10-19T13:04:18;9.03;;;3.30;;
6420;SDS011;3243;50.958;7.012;2022-10-19T13:14:52;5.07;;;3.07;;
6420;SDS011;3243;50.958;7.012;2022-10-19T13:25:35;6.80;;;3.63;;
6420;SDS011;3243;50.958;7.012;2022-10-19T13:59:57;7.03;;;3.20;;
6420;SDS011;3243;50.958;7.012;2022-10-19T14:05:46;8.03;;;2.90;;
6420;SDS011;3243;50.958;7.012;2022-10-19T14:11:16;7.77;;;3.10;;
6420;SDS011;3243;50.958;7.012;2022-10-19T14:14:05;6.30;;;2.70;;
6420;SDS011;3243;50.958;7.012;2022-10-19T14:16:32;8.50;;;3.60;;
6420;SDS011;3243;50.958;7.012;2022-10-19T14:18:59;6.80;;;2.90;;
6420;SDS011;3243;50.958;7.012;2022-10-19T14:21:32;7.03;;;3.10;;
6420;SDS011;3243;50.958;7.012;2022-10-19T14:24:01;5.00;;;2.67;;
6420;SDS011;3243;50.958;7.012;2022-10-19T14:26:43;6.70;;;2.50;;
6420;SDS011;3243;50.958;7.012;2022-10-19T14:29:11;9.40;;;3.20;;
6420;SDS011;3243;50.958;7.012;2022-10-19T14:31:39;5.17;;;2.97;;
6420;SDS011;3243;50.958;7.012;2022-10-19T14:34:06;8.27;;;2.90;;
6420;SDS011;3243;50.958;7.012;2022-10-19T14:36:38;6.63;;;2.77;;
6420;SDS011;3243;50.958;7.012;2022-10-19T14:39:20;5.00;;;2.40;;
6420;SDS011;3243;50.958;7.012;2022-10-19T14:42:08;6.73;;;2.80;;
6420;SDS011;3243;50.958;7.012;2022-10-19T14:44:37;6.70;;;2.87;;
6420;SDS011;3243;50.958;7.012;2022-10-19T14:47:14;8.00;;;2.77;;
6420;SDS011;3243;50.958;7.012;2022-10-19T14:49:43;5.23;;;2.77;;
6420;SDS011;3243;50.958;7.012;2022-10-19T14:52:11;6.37;;;2.70;;
6420;SDS011;3243;50.958;7.012;2022-10-19T14:54:42;5.53;;;2.50;;
6420;SDS011;3243;50.958;7.012;2022-10-19T14:57:21;6.27;;;2.70;;
6420;SDS011;3243;50.958;7.012;2022-10-19T15:00:06;4.90;;;2.60;;
6420;SDS011;3243;50.958;7.012;2022-10-19T15:02:41;4.73;;;2.47;;
6420;SDS011;3243;50.958;7.012;2022-10-19T15:05:19;5.50;;;2.67;;
6420;SDS011;3243;50.958;7.012;2022-10-19T15:07:49;7.00;;;2.80;;
6420;SDS011;3243;50.958;7.012;2022-10-19T15:10:17;6.90;;;2.87;;
6420;SDS011;3243;50.958;7.012;2022-10-19T15:12:50;5.83;;;2.67;;
6420;SDS011;3243;50.958;7.012;2022-10-19T15:15:24;6.57;;;3.10;;
6420;SDS011;3243;50.958;7.012;2022-10-19T15:18:03;7.00;;;2.67;;
6420;SDS011;3243;50.958;7.012;2022-10-19T15:20:33;8.00;;;2.50;;
6420;SDS011;3243;50.958;7.012;2022-10-19T15:23:28;6.60;;;2.70;;
6420;SDS011;3243;50.958;7.012;2022-10-19T15:28:42;4.77;;;2.30;;
6420;SDS011;3243;50.958;7.012;2022-10-19T15:31:17;5.27;;;2.30;;
6420;SDS011;3243;50.958;7.012;2022-10-19T15:33:52;5.13;;;2.63;;
6420;SDS011;3243;50.958;7.012;2022-10-19T15:36:21;10.10;;;2.97;;
6420;SDS011;3243;50.958;7.012;2022-10-19T15:38:58;5.03;;;2.40;;
6420;SDS011;3243;50.958;7.012;2022-10-19T15:41:52;3.60;;;2.17;;
6420;SDS011;3243;50.958;7.012;2022-10-19T15:44:33;4.27;;;2.53;;
6420;SDS011;3243;50.958;7.012;2022-10-19T15:52:16;5.03;;;2.50;;
6420;SDS011;3243;50.958;7.012;2022-10-19T15:54:47;9.67;;;2.50;;
6420;SDS011;3243;50.958;7.012;2022-10-19T15:59:51;4.13;;;2.20;;
6420;SDS011;3243;50.958;7.012;2022-10-19T16:02:18;7.27;;;2.57;;
6420;SDS011;3243;50.958;7.012;2022-10-19T16:04:45;6.83;;;3.03;;
6420;SDS011;3243;50.958;7.012;2022-10-19T16:07:13;6.83;;;2.90;;
6420;SDS011;3243;50.958;7.012;2022-10-19T16:09:44;5.50;;;3.40;;
6420;SDS011;3243;50.958;7.012;2022-10-19T16:12:11;7.47;;;3.23;;
6420;SDS011;3243;50.958;7.012;2022-10-19T16:14:38;10.93;;;3.23;;
6420;SDS011;3243;50.958;7.012;2022-10-19T16:17:04;6.47;;;2.60;;
6420;SDS011;3243;50.958;7.012;2022-10-19T16:19:31;5.07;;;2.50;;
6420;SDS011;3243;50.958;7.012;2022-10-19T16:21:58;7.13;;;2.50;;
6420;SDS011;3243;50.958;7.012;2022-10-19T16:24:24;4.80;;;2.40;;
6420;SDS011;3243;50.958;7.012;2022-10-19T16:26:51;7.20;;;3.00;;
6420;SDS011;3243;50.958;7.012;2022-10-19T16:29:18;5.03;;;2.90;;
6420;SDS011;3243;50.958;7.012;2022-10-19T16:31:44;18.47;;;3.70;;
6420;SDS011;3243;50.958;7.012;2022-10-19T16:34:11;9.20;;;3.10;;
6420;SDS011;3243;50.958;7.012;2022-10-19T16:36:38;7.90;;;3.00;;
6420;SDS011;3243;50.958;7.012;2022-10-19T16:39:05;7.40;;;2.80;;
6420;SDS011;3243;50.958;7.012;2022-10-19T16:41:31;6.20;;;2.87;;
6420;SDS011;3243;50.958;7.012;2022-10-19T16:43:58;9.07;;;2.70;;
6420;SDS011;3243;50.958;7.012;2022-10-19T16:46:25;6.30;;;2.60;;
6420;SDS011;3243;50.958;7.012;2022-10-19T16:48:52;3.90;;;3.00;;
6420;SDS011;3243;50.958;7.012;2022-10-19T16:54:02;8.30;;;2.80;;
6420;SDS011;3243;50.958;7.012;2022-10-19T16:56:30;7.13;;;3.23;;
6420;SDS011;3243;50.958;7.012;2022-10-19T16:58:59;4.83;;;3.00;;
6420;SDS011;3243;50.958;7.012;2022-10-19T17:01:28;5.57;;;2.73;;
6420;SDS011;3243;50.958;7.012;2022-10-19T17:03:55;6.40;;;2.90;;
6420;SDS011;3243;50.958;7.012;2022-10-19T17:06:22;6.57;;;2.97;;
6420;SDS011;3243;50.958;7.012;2022-10-19T17:08:50;6.63;;;2.90;;
6420;SDS011;3243;50.958;7.012;2022-10-19T17:11:38;5.33;;;3.30;;
6420;SDS011;3243;50.958;7.012;2022-10-19T17:14:06;4.40;;;2.80;;
6420;SDS011;3243;50.958;7.012;2022-10-19T17:16:36;9.10;;;3.77;;
6420;SDS011;3243;50.958;7.012;2022-10-19T17:19:04;6.93;;;3.50;;
6420;SDS011;3243;50.958;7.012;2022-10-19T17:21:32;6.23;;;3.70;;
6420;SDS011;3243;50.958;7.012;2022-10-19T17:24:03;5.23;;;4.07;;
6420;SDS011;3243;50.958;7.012;2022-10-19T17:26:33;5.93;;;3.83;;
6420;SDS011;3243;50.958;7.012;2022-10-19T17:29:05;7.07;;;3.57;;
6420;SDS011;3243;50.958;7.012;2022-10-19T17:31:35;6.63;;;3.50;;
6420;SDS011;3243;50.958;7.012;2022-10-19T17:34:02;8.17;;;3.37;;
6420;SDS011;3243;50.958;7.012;2022-10-19T17:36:31;9.70;;;3.43;;
6420;SDS011;3243;50.958;7.012;2022-10-19T17:39:03;7.37;;;3.60;;
6420;SDS011;3243;50.958;7.012;2022-10-19T17:41:31;7.73;;;3.30;;
6420;SDS011;3243;50.958;7.012;2022-10-19T17:43:58;6.30;;;3.20;;
6420;SDS011;3243;50.958;7.012;2022-10-19T17:46:26;5.60;;;3.33;;
6420;SDS011;3243;50.958;7.012;2022-10-19T17:48:55;6.57;;;3.30;;
6420;SDS011;3243;50.958;7.012;2022-10-19T17:51:24;6.60;;;3.17;;
6420;SDS011;3243;50.958;7.012;2022-10-19T17:53:55;8.47;;;3.57;;
6420;SDS011;3243;50.958;7.012;2022-10-19T17:56:30;7.93;;;3.60;;
6420;SDS011;3243;50.958;7.012;2022-10-19T17:58:57;7.30;;;3.60;;
6420;SDS011;3243;50.958;7.012;2022-10-19T18:01:25;7.10;;;3.40;;
6420;SDS011;3243;50.958;7.012;2022-10-19T18:03:52;7.67;;;3.63;;
6420;SDS011;3243;50.958;7.012;2022-10-19T18:06:26;7.40;;;3.70;;
6420;SDS011;3243;50.958;7.012;2022-10-19T18:08:56;7.07;;;3.10;;
6420;SDS011;3243;50.958;7.012;2022-10-19T18:11:25;5.80;;;3.43;;
6420;SDS011;3243;50.958;7.012;2022-10-19T18:13:55;5.73;;;3.20;;
6420;SDS011;3243;50.958;7.012;2022-10-19T18:16:24;8.80;;;3.17;;
6420;SDS011;3243;50.958;7.012;2022-10-19T18:18:53;5.63;;;3.10;;
6420;SDS011;3243;50.958;7.012;2022-10-19T18:21:22;6.77;;;3.20;;
6420;SDS011;3243;50.958;7.012;2022-10-19T18:23:51;9.13;;;3.40;;
6420;SDS011;3243;50.958;7.012;2022-10-19T18:26:20;8.70;;;3.13;;